createdAt,value
2022-12-28T00:01:28.219Z,99697.31
2022-12-28T00:03:55.192Z,99694.94
2022-12-28T00:06:24.160Z,99681.66
2022-12-28T00:08:56.399Z,99661.41
2022-12-28T00:11:25.524Z,99653.69
2022-12-28T00:13:56.122Z,99647.63
2022-12-28T00:16:27.987Z,99651.72
2022-12-28T00:18:55.693Z,99643.47
2022-12-28T00:21:22.519Z,99639.59
2022-12-28T00:23:52.901Z,99628.88
2022-12-28T00:26:20.209Z,99628.31
2022-12-28T00:28:47.895Z,99620.19
2022-12-28T00:31:15.003Z,99623.09
2022-12-28T00:33:41.956Z,99615.53
2022-12-28T00:36:12.112Z,99623.56
2022-12-28T00:38:38.710Z,99622.81
2022-12-28T00:41:06.262Z,99625.19
2022-12-28T00:43:32.942Z,99625.63
2022-12-28T00:45:59.547Z,99628.28
2022-12-28T00:48:26.108Z,99626.88
2022-12-28T00:50:52.685Z,99614.53
2022-12-28T00:53:19.100Z,99614.06
2022-12-28T00:55:45.450Z,99604.94
2022-12-28T00:58:11.896Z,99606.94
2022-12-28T01:00:39.150Z,99605.50
2022-12-28T01:03:05.644Z,99615.38
2022-12-28T01:05:32.040Z,99619.91
2022-12-28T01:07:58.423Z,99615.38
2022-12-28T01:10:24.981Z,99613.75
2022-12-28T01:12:51.418Z,99605.56
2022-12-28T01:15:17.928Z,99596.75
2022-12-28T01:17:44.394Z,99608.03
2022-12-28T01:20:11.184Z,99601.66
2022-12-28T01:22:37.583Z,99590.56
2022-12-28T01:25:04.817Z,99596.53
2022-12-28T01:27:32.246Z,99590.66
2022-12-28T01:29:58.619Z,99588.69
2022-12-28T01:32:25.110Z,99588.38
2022-12-28T01:34:51.462Z,99594.44
2022-12-28T01:37:18.569Z,99585.00
2022-12-28T01:39:44.944Z,99591.28
2022-12-28T01:42:17.052Z,99572.59
2022-12-28T01:44:49.191Z,99571.97
2022-12-28T01:47:33.659Z,99576.00
2022-12-28T01:50:09.904Z,99581.97
2022-12-28T01:52:44.857Z,99579.00
2022-12-28T01:55:16.642Z,99558.47
2022-12-28T01:57:48.318Z,99553.06
2022-12-28T02:05:15.536Z,99545.19
2022-12-28T02:07:51.249Z,99526.28
2022-12-28T02:10:42.447Z,99521.78
2022-12-28T02:13:05.733Z,99531.69
2022-12-28T02:15:32.336Z,99533.91
2022-12-28T02:17:59.404Z,99533.53
2022-12-28T02:20:34.306Z,99516.28
2022-12-28T02:23:09.743Z,99504.56
2022-12-28T02:25:59.651Z,99500.00
2022-12-28T02:29:14.205Z,99498.84
2022-12-28T02:31:47.676Z,99510.22
2022-12-28T02:34:43.318Z,99492.13
2022-12-28T02:37:16.727Z,99491.91
2022-12-28T02:39:54.958Z,99489.03
2022-12-28T02:42:23.360Z,99480.97
2022-12-28T02:45:08.416Z,99482.03
2022-12-28T02:47:53.659Z,99470.97
2022-12-28T02:50:20.811Z,99470.13
2022-12-28T02:52:59.320Z,99466.47
2022-12-28T02:55:56.017Z,99456.63
2022-12-28T02:58:31.173Z,99449.69
2022-12-28T03:01:06.755Z,99451.81
2022-12-28T03:04:09.711Z,99446.38
2022-12-28T03:07:15.492Z,99444.78
2022-12-28T03:09:48.417Z,99442.34
2022-12-28T03:12:32.508Z,99444.38
2022-12-28T03:15:11.479Z,99434.13
2022-12-28T03:18:00.179Z,99433.28
2022-12-28T03:20:49.431Z,99422.66
2022-12-28T03:23:41.866Z,99415.28
2022-12-28T03:26:30.606Z,99410.94
2022-12-28T03:29:19.404Z,99410.06
2022-12-28T03:31:46.168Z,99403.78
2022-12-28T03:34:14.472Z,99403.25
2022-12-28T03:37:10.485Z,99399.22
2022-12-28T03:39:56.652Z,99399.66
2022-12-28T03:42:45.551Z,99394.16
2022-12-28T03:45:45.360Z,99400.25
2022-12-28T03:48:15.649Z,99385.75
2022-12-28T03:50:45.614Z,99381.38
2022-12-28T03:53:12.121Z,99378.50
2022-12-28T03:55:39.722Z,99381.91
2022-12-28T03:58:06.951Z,99368.16
2022-12-28T04:00:33.472Z,99358.44
2022-12-28T04:02:59.966Z,99358.03
2022-12-28T04:05:26.404Z,99372.28
2022-12-28T04:07:53.343Z,99359.03
2022-12-28T04:10:19.701Z,99354.56
2022-12-28T04:12:46.133Z,99351.78
2022-12-28T04:15:12.601Z,99346.69
2022-12-28T04:17:39.021Z,99350.84
2022-12-28T04:20:06.132Z,99348.19
2022-12-28T04:22:32.599Z,99344.19
2022-12-28T04:24:58.944Z,99335.59
2022-12-28T04:27:27.045Z,99334.50
2022-12-28T04:29:53.446Z,99337.03
2022-12-28T04:32:19.929Z,99329.69
2022-12-28T04:34:48.696Z,99327.88
2022-12-28T04:37:15.551Z,99329.84
2022-12-28T04:39:55.203Z,99315.69
2022-12-28T04:42:26.959Z,99322.28
2022-12-28T04:44:53.322Z,99308.03
2022-12-28T04:47:19.730Z,99305.63
2022-12-28T04:49:46.262Z,99308.31
2022-12-28T04:52:12.731Z,99298.16
2022-12-28T04:54:39.124Z,99295.22
2022-12-28T04:57:06.608Z,99303.94
2022-12-28T04:59:32.997Z,99304.53
2022-12-28T05:01:59.531Z,99294.75
2022-12-28T05:04:25.993Z,99300.31
2022-12-28T05:06:52.377Z,99299.63
2022-12-28T05:09:19.362Z,99293.69
2022-12-28T05:11:46.896Z,99290.06
2022-12-28T05:14:13.373Z,99289.44
2022-12-28T05:16:39.807Z,99289.53
2022-12-28T05:19:06.261Z,99288.38
2022-12-28T05:21:32.812Z,99289.69
2022-12-28T05:23:59.438Z,99290.84
2022-12-28T05:26:29.012Z,99289.59
2022-12-28T05:28:58.883Z,99285.84
2022-12-28T05:31:26.129Z,99286.34
2022-12-28T05:33:53.689Z,99281.97
2022-12-28T05:36:26.956Z,99283.19
2022-12-28T05:38:54.767Z,99279.44
2022-12-28T05:41:23.631Z,99277.38
2022-12-28T05:43:50.883Z,99270.13
2022-12-28T05:46:24.519Z,99273.53
2022-12-28T05:48:51.529Z,99268.19
2022-12-28T05:51:20.379Z,99269.19
2022-12-28T05:53:47.533Z,99255.34
2022-12-28T05:56:15.193Z,99258.78
2022-12-28T05:58:45.978Z,99259.50
2022-12-28T06:01:18.492Z,99256.59
2022-12-28T06:03:47.129Z,99243.97
2022-12-28T06:06:17.447Z,99236.22
2022-12-28T06:08:44.923Z,99229.53
2022-12-28T06:11:13.912Z,99229.19
2022-12-28T06:13:40.803Z,99214.03
2022-12-28T06:16:09.258Z,99215.38
2022-12-28T06:18:36.463Z,99210.78
2022-12-28T06:21:10.074Z,99213.16
2022-12-28T06:23:37.020Z,99207.97
2022-12-28T06:26:06.356Z,99220.81
2022-12-28T06:28:33.640Z,99220.22
2022-12-28T06:31:07.679Z,99222.47
2022-12-28T06:33:34.834Z,99211.44
2022-12-28T06:36:01.703Z,99212.88
2022-12-28T06:38:31.049Z,99208.06
2022-12-28T06:41:13.224Z,99199.94
2022-12-28T06:43:41.884Z,99188.16
2022-12-28T06:46:09.094Z,99183.16
2022-12-28T06:48:36.580Z,99185.13
2022-12-28T06:51:04.712Z,99178.19
2022-12-28T06:53:34.589Z,99181.81
2022-12-28T06:56:04.100Z,99171.38
2022-12-28T06:58:31.219Z,99187.13
2022-12-28T07:01:04.999Z,99167.09
2022-12-28T07:03:31.437Z,99164.06
2022-12-28T07:06:01.782Z,99158.34
2022-12-28T07:08:28.535Z,99163.94
2022-12-28T07:10:55.036Z,99170.00
2022-12-28T07:13:26.284Z,99161.41
2022-12-28T07:15:54.644Z,99163.09
2022-12-28T07:18:20.995Z,99164.34
2022-12-28T07:20:47.365Z,99165.06
2022-12-28T07:23:13.806Z,99163.81
2022-12-28T07:25:40.171Z,99159.72
2022-12-28T07:28:06.555Z,99167.25
2022-12-28T07:30:33.042Z,99166.16
2022-12-28T07:32:59.527Z,99167.00
2022-12-28T07:35:26.160Z,99161.41
2022-12-28T07:37:54.150Z,99170.16
2022-12-28T07:40:20.487Z,99160.31
2022-12-28T07:42:46.842Z,99166.16
2022-12-28T07:45:13.248Z,99174.03
2022-12-28T07:47:39.885Z,99179.84
2022-12-28T07:50:06.852Z,99166.50
2022-12-28T07:52:36.462Z,99170.16
2022-12-28T07:55:03.312Z,99169.03
2022-12-28T07:57:29.712Z,99160.91
2022-12-28T07:59:56.114Z,99165.66
2022-12-28T08:02:22.532Z,99165.91
2022-12-28T08:04:52.233Z,99162.16
2022-12-28T08:07:19.226Z,99167.22
2022-12-28T08:09:45.659Z,99159.94
2022-12-28T08:12:12.058Z,99155.56
2022-12-28T08:14:38.392Z,99162.34
2022-12-28T08:17:04.799Z,99160.66
2022-12-28T08:19:31.241Z,99160.66
2022-12-28T08:21:57.628Z,99160.66
2022-12-28T08:24:24.207Z,99167.28
2022-12-28T08:26:50.852Z,99172.16
2022-12-28T08:29:21.038Z,99177.00
2022-12-28T08:31:48.068Z,99170.06
2022-12-28T08:34:17.331Z,99165.19
2022-12-28T08:36:43.768Z,99160.47
2022-12-28T08:39:10.463Z,99161.34
2022-12-28T08:41:37.375Z,99167.13
2022-12-28T08:44:03.943Z,99167.31
2022-12-28T08:46:32.883Z,99170.19
2022-12-28T08:49:00.746Z,99171.31
2022-12-28T08:51:31.721Z,99165.44
2022-12-28T08:53:58.736Z,99164.00
2022-12-28T08:56:35.784Z,99158.47
2022-12-28T08:59:03.649Z,99154.13
2022-12-28T09:01:37.323Z,99146.69
2022-12-28T09:04:09.292Z,99150.91
2022-12-28T09:06:37.754Z,99150.53
2022-12-28T09:09:07.315Z,99151.09
2022-12-28T09:11:35.503Z,99144.06
2022-12-28T09:14:03.941Z,99156.84
2022-12-28T09:16:30.791Z,99158.28
2022-12-28T09:19:00.128Z,99155.19
2022-12-28T09:21:31.440Z,99156.38
2022-12-28T09:23:57.905Z,99159.19
2022-12-28T09:26:26.757Z,99155.66
2022-12-28T09:28:59.922Z,99161.44
2022-12-28T09:31:29.246Z,99163.28
2022-12-28T09:34:34.219Z,99166.53
2022-12-28T09:36:45.389Z,99155.84
2022-12-28T09:39:20.650Z,99162.63
2022-12-28T09:41:55.327Z,99175.44
2022-12-28T09:44:37.016Z,99167.97
2022-12-28T09:47:28.865Z,99165.31
2022-12-28T09:50:17.350Z,99172.88
2022-12-28T09:53:04.397Z,99174.28
2022-12-28T09:55:33.329Z,99174.47
2022-12-28T09:58:01.081Z,99175.00
2022-12-28T10:00:37.445Z,99168.00
2022-12-28T10:03:11.864Z,99165.06
2022-12-28T10:05:38.308Z,99164.50
2022-12-28T10:08:05.164Z,99155.22
2022-12-28T10:10:31.974Z,99164.13
2022-12-28T10:13:36.996Z,99157.38
2022-12-28T10:15:59.343Z,99157.56
2022-12-28T10:18:28.103Z,99150.38
2022-12-28T10:20:55.705Z,99156.16
2022-12-28T10:23:29.721Z,99144.50
2022-12-28T10:25:58.667Z,99141.63
2022-12-28T10:28:30.015Z,99137.50
2022-12-28T10:31:08.460Z,99133.72
2022-12-28T10:33:40.290Z,99135.44
2022-12-28T10:36:14.959Z,99133.19
2022-12-28T10:38:44.094Z,99126.31
2022-12-28T10:41:15.715Z,99117.44
2022-12-28T10:44:14.670Z,99126.31
2022-12-28T10:46:53.862Z,99118.84
2022-12-28T10:49:21.494Z,99126.47
2022-12-28T10:52:03.297Z,99119.69
2022-12-28T10:54:36.114Z,99118.44
2022-12-28T10:57:02.977Z,99111.28
2022-12-28T10:59:31.148Z,99098.16
2022-12-28T11:02:30.446Z,99094.22
2022-12-28T11:05:02.332Z,99090.81
2022-12-28T11:07:30.465Z,99090.56
2022-12-28T11:10:15.446Z,99079.56
2022-12-28T11:12:44.392Z,99069.69
2022-12-28T11:15:16.605Z,99069.13
2022-12-28T11:17:44.449Z,99067.41
2022-12-28T11:20:18.594Z,99054.03
2022-12-28T11:22:46.251Z,99054.44
2022-12-28T11:25:22.184Z,99055.31
2022-12-28T11:27:49.414Z,99053.63
2022-12-28T11:30:18.402Z,99044.31
2022-12-28T11:32:51.310Z,99053.75
2022-12-28T11:35:29.924Z,99049.13
2022-12-28T11:38:00.688Z,99054.19
2022-12-28T11:40:46.487Z,99042.06
2022-12-28T11:43:28.409Z,99041.09
2022-12-28T11:46:00.509Z,99047.44
2022-12-28T11:48:42.395Z,99035.03
2022-12-28T11:51:15.849Z,99035.16
2022-12-28T11:53:44.992Z,99037.56
2022-12-28T11:56:14.172Z,99037.56
2022-12-28T11:58:40.513Z,99033.34
2022-12-28T12:01:45.532Z,99032.22
2022-12-28T12:04:40.080Z,99023.47
2022-12-28T12:07:14.196Z,99027.72
2022-12-28T12:09:44.189Z,99027.84
2022-12-28T12:12:17.939Z,99027.84
2022-12-28T12:14:49.068Z,99041.78
2022-12-28T12:17:45.240Z,99036.72
2022-12-28T12:20:23.463Z,99023.22
2022-12-28T12:22:56.293Z,99021.22
2022-12-28T12:25:42.576Z,99015.31
2022-12-28T12:28:27.603Z,99015.03
2022-12-28T12:30:55.263Z,99015.75
2022-12-28T12:33:34.149Z,99009.97
2022-12-28T12:36:15.800Z,99002.91
2022-12-28T12:38:51.178Z,99003.19
2022-12-28T12:41:29.456Z,98996.00
2022-12-28T12:44:09.365Z,98997.03
2022-12-28T12:46:53.651Z,98998.97
2022-12-28T12:49:38.229Z,98996.16
2022-12-28T12:52:32.434Z,98993.31
2022-12-28T12:55:18.214Z,98997.66
2022-12-28T12:58:02.099Z,99003.16
2022-12-28T13:00:49.588Z,99001.47
2022-12-28T13:03:29.646Z,98986.25
2022-12-28T13:05:58.437Z,98976.41
2022-12-28T13:09:05.036Z,98982.03
2022-12-28T13:11:37.443Z,98976.94
2022-12-28T13:14:05.005Z,98977.09
2022-12-28T13:16:32.579Z,98968.81
2022-12-28T13:19:05.521Z,98967.09
2022-12-28T13:21:43.921Z,98972.97
2022-12-28T13:24:38.844Z,98960.44
2022-12-28T13:27:18.361Z,98958.34
2022-12-28T13:29:52.165Z,98963.41
2022-12-28T13:32:36.032Z,98950.88
2022-12-28T13:35:17.400Z,98946.22
2022-12-28T13:37:43.811Z,98930.31
2022-12-28T13:40:11.742Z,98936.81
2022-12-28T13:42:54.447Z,98941.31
2022-12-28T13:45:21.998Z,98945.38
2022-12-28T13:47:51.832Z,98928.50
2022-12-28T13:50:24.232Z,98919.81
2022-12-28T13:52:59.493Z,98917.13
2022-12-28T13:55:37.435Z,98916.72
2022-12-28T13:58:09.790Z,98909.94
2022-12-28T14:00:38.449Z,98914.16
2022-12-28T14:03:11.264Z,98910.09
2022-12-28T14:05:44.027Z,98894.75
2022-12-28T14:08:11.411Z,98879.00
2022-12-28T14:10:37.863Z,98884.06
2022-12-28T14:13:04.948Z,98877.16
2022-12-28T14:15:39.006Z,98871.81
2022-12-28T14:18:08.438Z,98879.84
2022-12-28T14:20:50.026Z,98867.75
2022-12-28T14:23:20.561Z,98870.00
2022-12-28T14:25:47.362Z,98873.09
2022-12-28T14:28:21.955Z,98862.25
2022-12-28T14:30:54.309Z,98872.38
2022-12-28T14:33:27.658Z,98865.22
2022-12-28T14:35:57.396Z,98865.34
2022-12-28T14:38:29.278Z,98858.03
2022-12-28T14:40:58.314Z,98857.63
2022-12-28T14:43:27.824Z,98853.81
2022-12-28T14:46:06.809Z,98847.63
2022-12-28T14:48:40.491Z,98839.03
2022-12-28T14:51:17.421Z,98832.28
2022-12-28T14:53:45.312Z,98827.22
2022-12-28T14:56:18.496Z,98824.41
2022-12-28T14:58:59.066Z,98819.34
2022-12-28T15:01:38.915Z,98800.94
2022-12-28T15:04:05.472Z,98798.53
2022-12-28T15:06:32.556Z,98798.53
2022-12-28T15:09:01.100Z,98793.03
2022-12-28T15:11:29.244Z,98789.53
2022-12-28T15:13:56.949Z,98781.38
2022-12-28T15:16:23.415Z,98783.63
2022-12-28T15:18:49.826Z,98776.03
2022-12-28T15:21:18.993Z,98781.38
2022-12-28T15:23:53.005Z,98765.47
2022-12-28T15:26:20.909Z,98760.13
2022-12-28T15:28:47.334Z,98774.06
2022-12-28T15:31:17.860Z,98769.53
2022-12-28T15:33:45.360Z,98769.00
2022-12-28T15:36:18.281Z,98757.19
2022-12-28T15:38:46.585Z,98749.59
2022-12-28T15:41:32.388Z,98747.31
2022-12-28T15:43:58.787Z,98740.00
2022-12-28T15:46:25.219Z,98753.38
2022-12-28T15:48:51.874Z,98743.41
2022-12-28T15:51:19.504Z,98744.25
2022-12-28T15:53:48.088Z,98736.81
2022-12-28T15:56:27.512Z,98732.16
2022-12-28T15:58:55.982Z,98736.94
2022-12-28T16:01:23.832Z,98750.72
2022-12-28T16:03:55.397Z,98743.00
2022-12-28T16:06:22.838Z,98756.06
2022-12-28T16:08:54.100Z,98757.59
2022-12-28T16:11:23.992Z,98752.25
2022-12-28T16:13:53.803Z,98751.25
2022-12-28T16:16:22.032Z,98746.91
2022-12-28T16:18:50.072Z,98746.22
2022-12-28T16:21:18.266Z,98742.13
2022-12-28T16:23:45.329Z,98736.91
2022-12-28T16:26:13.000Z,98736.91
2022-12-28T16:28:40.287Z,98732.66
2022-12-28T16:31:07.108Z,98728.47
2022-12-28T16:33:33.913Z,98733.97
2022-12-28T16:36:00.417Z,98709.31
2022-12-28T16:38:28.457Z,98716.91
2022-12-28T16:40:56.172Z,98725.19
2022-12-28T16:43:22.788Z,98714.66
2022-12-28T16:45:49.560Z,98712.44
2022-12-28T16:48:16.450Z,98697.50
2022-12-28T16:50:43.032Z,98705.50
2022-12-28T16:53:09.615Z,98705.09
2022-12-28T16:55:41.526Z,98700.72
2022-12-28T16:58:09.326Z,98690.91
2022-12-28T17:00:35.891Z,98681.03
2022-12-28T17:03:02.527Z,98669.06
2022-12-28T17:05:34.128Z,98668.78
2022-12-28T17:08:01.076Z,98656.84
2022-12-28T17:10:27.653Z,98666.09
2022-12-28T17:12:54.014Z,98654.72
2022-12-28T17:15:20.471Z,98651.63
2022-12-28T17:17:46.844Z,98645.19
2022-12-28T17:20:13.298Z,98642.25
2022-12-28T17:22:39.653Z,98633.22
2022-12-28T17:25:07.061Z,98638.13
2022-12-28T17:27:33.940Z,98623.22
2022-12-28T17:30:00.428Z,98627.19
2022-12-28T17:32:27.022Z,98624.50
2022-12-28T17:34:53.535Z,98617.31
2022-12-28T17:37:19.933Z,98612.66
2022-12-28T17:39:46.320Z,98598.19
2022-12-28T17:42:12.707Z,98599.16
2022-12-28T17:44:39.133Z,98589.63
2022-12-28T17:47:05.614Z,98576.03
2022-12-28T17:49:32.094Z,98578.72
2022-12-28T17:51:58.474Z,98561.25
2022-12-28T17:54:24.891Z,98553.53
2022-12-28T17:56:51.262Z,98548.31
2022-12-28T17:59:17.653Z,98559.94
2022-12-28T18:01:44.430Z,98553.78
2022-12-28T18:04:12.017Z,98543.22
2022-12-28T18:06:38.907Z,98550.47
2022-12-28T18:09:05.346Z,98551.63
2022-12-28T18:11:31.790Z,98562.63
2022-12-28T18:13:59.102Z,98554.31
2022-12-28T18:16:26.531Z,98543.59
2022-12-28T18:18:53.587Z,98544.97
2022-12-28T18:21:23.046Z,98549.06
2022-12-28T18:23:52.581Z,98541.75
2022-12-28T18:26:21.955Z,98538.94
2022-12-28T18:28:48.614Z,98535.84
2022-12-28T18:31:15.298Z,98540.09
2022-12-28T18:33:41.798Z,98539.56
2022-12-28T18:36:16.807Z,98535.19
2022-12-28T18:38:45.648Z,98532.22
2022-12-28T18:41:14.199Z,98528.69
2022-12-28T18:43:40.820Z,98524.88
2022-12-28T18:46:08.918Z,98524.34
2022-12-28T18:48:38.679Z,98519.00
2022-12-28T18:51:20.069Z,98522.66
2022-12-28T18:53:47.093Z,98528.88
2022-12-28T18:56:15.967Z,98519.16
2022-12-28T18:58:43.709Z,98521.16
2022-12-28T19:01:55.475Z,98521.81
2022-12-28T19:04:05.691Z,98521.72
2022-12-28T19:06:32.711Z,98524.78
2022-12-28T19:09:00.653Z,98508.91
2022-12-28T19:11:27.545Z,98523.44
2022-12-28T19:13:53.952Z,98512.19
2022-12-28T19:16:26.993Z,98516.81
2022-12-28T19:18:56.994Z,98503.94
2022-12-28T19:21:32.195Z,98506.59
2022-12-28T19:23:59.833Z,98506.22
2022-12-28T19:26:26.210Z,98494.50
2022-12-28T19:28:52.879Z,98496.50
2022-12-28T19:31:19.446Z,98485.94
2022-12-28T19:33:46.671Z,98483.13
2022-12-28T19:36:13.228Z,98481.63
2022-12-28T19:38:39.665Z,98470.78
2022-12-28T19:41:09.699Z,98466.13
2022-12-28T19:43:37.014Z,98454.03
2022-12-28T19:46:30.499Z,98465.56
2022-12-28T19:49:02.098Z,98448.38
2022-12-28T19:51:31.591Z,98437.84
2022-12-28T19:53:58.388Z,98433.19
2022-12-28T19:56:24.787Z,98431.06
2022-12-28T19:58:51.198Z,98422.72
2022-12-28T20:01:20.885Z,98419.75
2022-12-28T20:03:48.164Z,98424.81
2022-12-28T20:06:21.737Z,98417.09
2022-12-28T20:08:52.794Z,98414.78
2022-12-28T20:11:20.231Z,98408.78
2022-12-28T20:13:51.681Z,98419.47
2022-12-28T20:16:19.012Z,98417.75
2022-12-28T20:18:47.120Z,98407.41
2022-12-28T20:21:21.816Z,98393.03
2022-12-28T20:23:49.775Z,98402.25
2022-12-28T20:26:17.398Z,98397.63
2022-12-28T20:28:44.659Z,98397.13
2022-12-28T20:31:14.219Z,98391.88
2022-12-28T20:33:41.768Z,98386.22
2022-12-28T20:36:12.319Z,98391.28
2022-12-28T20:38:39.117Z,98386.63
2022-12-28T20:41:34.474Z,98376.63
2022-12-28T20:44:03.588Z,98371.94
2022-12-28T20:46:30.269Z,98375.28
2022-12-28T20:48:56.660Z,98374.84
2022-12-28T20:51:23.154Z,98386.75
2022-12-28T20:53:49.567Z,98391.25
2022-12-28T20:56:15.935Z,98390.81
2022-12-28T20:58:42.717Z,98376.59
2022-12-28T21:01:12.547Z,98380.78
2022-12-28T21:03:39.439Z,98386.13
2022-12-28T21:06:06.325Z,98375.81
2022-12-28T21:08:33.669Z,98379.47
2022-12-28T21:11:00.787Z,98371.44
2022-12-28T21:13:27.790Z,98370.66
2022-12-28T21:15:54.605Z,98367.53
2022-12-28T21:18:21.388Z,98371.41
2022-12-28T21:20:55.367Z,98370.38
2022-12-28T21:23:21.822Z,98360.69
2022-12-28T21:25:48.340Z,98360.53
2022-12-28T21:28:15.100Z,98341.81
2022-12-28T21:30:41.564Z,98365.59
2022-12-28T21:33:08.382Z,98366.94
2022-12-28T21:35:35.040Z,98354.22
2022-12-28T21:38:01.893Z,98353.28
2022-12-28T21:40:28.504Z,98354.44
2022-12-28T21:42:54.849Z,98340.72
2022-12-28T21:45:21.415Z,98351.28
2022-12-28T21:47:47.824Z,98350.97
2022-12-28T21:50:14.311Z,98338.25
2022-12-28T21:52:40.695Z,98338.25
2022-12-28T21:55:26.063Z,98333.22
2022-12-28T21:57:53.801Z,98331.94
2022-12-28T22:00:39.637Z,98333.28
2022-12-28T22:03:25.059Z,98332.63
2022-12-28T22:05:51.510Z,98328.25
2022-12-28T22:08:36.188Z,98318.41
2022-12-28T22:11:20.993Z,98319.41
2022-12-28T22:13:47.441Z,98319.59
2022-12-28T22:16:13.886Z,98321.59
2022-12-28T22:21:27.693Z,98312.75
2022-12-28T22:23:55.036Z,98311.75
2022-12-28T22:26:22.086Z,98304.88
2022-12-28T22:28:48.743Z,98299.84
2022-12-28T22:31:15.407Z,98292.34
2022-12-28T22:33:42.005Z,98291.81
2022-12-28T22:36:13.313Z,98299.38
2022-12-28T22:38:39.732Z,98292.16
2022-12-28T22:41:06.772Z,98290.81
2022-12-28T22:43:33.488Z,98299.72
2022-12-28T22:46:05.891Z,98289.34
2022-12-28T22:48:33.187Z,98275.78
2022-12-28T22:51:11.313Z,98299.75
2022-12-28T22:53:38.190Z,98297.06
2022-12-28T22:56:07.189Z,98280.66
2022-12-28T22:58:33.972Z,98286.19
2022-12-28T23:01:04.508Z,98286.84
2022-12-28T23:03:31.198Z,98296.59
2022-12-28T23:05:57.638Z,98279.47
2022-12-28T23:08:23.989Z,98278.16
2022-12-28T23:10:55.585Z,98279.00
2022-12-28T23:13:22.027Z,98278.84
2022-12-28T23:16:04.088Z,98271.44
2022-12-28T23:18:49.608Z,98281.69
2022-12-28T23:21:36.483Z,98276.47
2022-12-28T23:24:21.744Z,98280.16
2022-12-28T23:27:06.574Z,98285.88
2022-12-28T23:29:33.061Z,98275.16
2022-12-28T23:32:00.303Z,98281.16
2022-12-28T23:34:26.776Z,98275.47
2022-12-28T23:36:53.354Z,98282.47
2022-12-28T23:39:19.810Z,98288.34
2022-12-28T23:41:48.742Z,98289.69
2022-12-28T23:44:23.608Z,98289.53
2022-12-28T23:46:58.299Z,98287.00
2022-12-28T23:49:25.652Z,98272.13
2022-12-28T23:51:52.061Z,98271.44
2022-12-28T23:54:19.405Z,98279.81
2022-12-28T23:56:46.423Z,98282.66
2022-12-28T23:59:15.115Z,98285.88
